Time;durP1;ratioP1;P1;durP2;ratioP2;P2;SDS_P1;SDS_P2;PMS_P1;PMS_P2;Temp;Humidity;BMP_temperature;BMP_pressure;BME280_temperature;BME280_humidity;BME280_pressure;Samples;Min_cycle;Max_cycle;Signal;HPM_P1;HPM_P2
2023/08/13 00:00:46;;;;;;;;;;;22.70;94.50;;;;;;5044763;28;19995;-78
2023/08/13 00:03:12;;;;;;;;;;;22.70;94.50;;;;;;5042875;28;19980;-78
2023/08/13 00:05:39;;;;;;;;;;;22.70;94.50;;;;;;5044891;28;19996;-78
2023/08/13 00:08:06;;;;;;;;;;;22.70;94.60;;;;;;5046373;28;19976;-79
2023/08/13 00:10:34;;;;;;;;;;;22.60;94.50;;;;;;5048931;28;20330;-79
2023/08/13 00:13:01;;;;;;;;;;;22.60;94.60;;;;;;5045696;28;19979;-79
2023/08/13 00:15:27;;;;;;;;;;;22.60;94.60;;;;;;5044705;28;19999;-79
2023/08/13 00:17:54;;;;;;;;;;;22.60;94.60;;;;;;5044175;28;19983;-79
2023/08/13 00:20:20;;;;;;;;;;;22.50;94.60;;;;;;5048560;28;19950;-79
2023/08/13 00:22:47;;;;;;;;;;;22.50;94.70;;;;;;5044579;28;19928;-79
2023/08/13 00:25:13;;;;;;;;;;;22.50;94.70;;;;;;5044670;28;19925;-79
2023/08/13 00:27:41;;;;;;;;;;;22.50;94.70;;;;;;5045349;28;19933;-79
2023/08/13 00:30:09;;;;;;;;;;;22.50;94.70;;;;;;5041749;28;19940;-80
2023/08/13 00:32:36;;;;;;;;;;;22.50;94.70;;;;;;5047333;28;19976;-79
2023/08/13 00:35:02;;;;;;;;;;;22.40;94.70;;;;;;5052369;28;19928;-78
2023/08/13 00:37:29;;;;;;;;;;;22.40;94.80;;;;;;5046339;28;20055;-80
2023/08/13 00:39:55;;;;;;;;;;;22.40;94.80;;;;;;5042461;28;20366;-78
2023/08/13 00:42:22;;;;;;;;;;;22.40;94.80;;;;;;5038768;28;20476;-77
2023/08/13 00:44:50;;;;;;;;;;;22.40;94.90;;;;;;5038898;28;19995;-78
2023/08/13 00:47:16;;;;;;;;;;;22.30;94.80;;;;;;5036873;28;20460;-79
2023/08/13 00:49:43;;;;;;;;;;;22.30;94.90;;;;;;5041187;28;19979;-78
2023/08/13 00:52:10;;;;;;;;;;;22.30;94.90;;;;;;5041271;28;19986;-79
2023/08/13 00:54:36;;;;;;;;;;;22.30;94.90;;;;;;5043327;28;19998;-79
2023/08/13 00:57:03;;;;;;;;;;;22.30;95.00;;;;;;5044079;28;19983;-80
2023/08/13 00:59:31;;;;;;;;;;;22.30;95.00;;;;;;5042345;28;19988;-78
2023/08/13 01:01:59;;;;;;;;;;;22.30;95.00;;;;;;5041101;28;20494;-79
2023/08/13 01:04:25;;;;;;;;;;;22.20;95.00;;;;;;5041042;28;20098;-80
2023/08/13 01:06:59;;;;;;;;;;;22.20;95.00;;;;;;5044414;28;19983;-79
2023/08/13 01:09:44;;;;;;;;;;;22.20;95.10;;;;;;5041778;28;20710;-78
2023/08/13 01:12:17;;;;;;;;;;;22.20;95.10;;;;;;5042664;28;19994;-77
2023/08/13 01:14:45;;;;;;;;;;;22.10;95.10;;;;;;5047082;28;20045;-78
2023/08/13 01:17:15;;;;;;;;;;;22.10;95.10;;;;;;5047399;28;20421;-80
2023/08/13 01:19:42;;;;;;;;;;;22.10;95.10;;;;;;5044725;28;19991;-78
2023/08/13 01:22:09;;;;;;;;;;;22.10;95.10;;;;;;5041103;28;20471;-79
2023/08/13 01:24:37;;;;;;;;;;;22.10;95.10;;;;;;5039839;28;20019;-78
2023/08/13 01:27:08;;;;;;;;;;;22.00;95.10;;;;;;5044933;28;19975;-79
2023/08/13 01:29:37;;;;;;;;;;;22.00;95.10;;;;;;5040128;28;19980;-78
2023/08/13 01:32:06;;;;;;;;;;;22.00;95.20;;;;;;5045753;28;20786;-77
2023/08/13 01:34:33;;;;;;;;;;;22.00;95.20;;;;;;5041687;28;20511;-80
2023/08/13 01:37:00;;;;;;;;;;;21.90;95.10;;;;;;5042244;28;19987;-80
2023/08/13 01:39:26;;;;;;;;;;;22.00;95.20;;;;;;5042136;28;19992;-78
2023/08/13 01:41:55;;;;;;;;;;;21.90;95.20;;;;;;5043449;28;19976;-80
2023/08/13 01:44:22;;;;;;;;;;;21.90;95.20;;;;;;5036145;28;21937;-79
2023/08/13 01:46:48;;;;;;;;;;;21.90;95.20;;;;;;5045780;28;19999;-80
2023/08/13 01:49:15;;;;;;;;;;;21.90;95.30;;;;;;5050155;28;19983;-79
2023/08/13 01:51:42;;;;;;;;;;;21.90;95.30;;;;;;5047915;28;19984;-79
2023/08/13 01:54:08;;;;;;;;;;;21.80;95.30;;;;;;5046855;28;19983;-80
2023/08/13 01:56:35;;;;;;;;;;;21.80;95.30;;;;;;5042864;28;19976;-78
2023/08/13 01:59:03;;;;;;;;;;;21.80;95.30;;;;;;5043774;28;19992;-80
2023/08/13 02:01:29;;;;;;;;;;;21.80;95.40;;;;;;5044967;28;20106;-80
2023/08/13 02:03:56;;;;;;;;;;;21.80;95.40;;;;;;5045053;28;19976;-78
2023/08/13 02:06:22;;;;;;;;;;;21.80;95.40;;;;;;5048633;28;20381;-80
2023/08/13 02:08:49;;;;;;;;;;;21.70;95.40;;;;;;5045779;28;20450;-79
2023/08/13 02:11:15;;;;;;;;;;;21.70;95.50;;;;;;5045659;28;19976;-78
2023/08/13 02:13:43;;;;;;;;;;;21.70;95.50;;;;;;5047576;28;19976;-77
2023/08/13 02:16:11;;;;;;;;;;;21.70;95.50;;;;;;5044590;28;20014;-79
2023/08/13 02:18:37;;;;;;;;;;;21.70;95.60;;;;;;5046435;28;20015;-79
2023/08/13 02:21:04;;;;;;;;;;;21.60;95.60;;;;;;5048494;28;19976;-79
2023/08/13 02:23:30;;;;;;;;;;;21.60;95.60;;;;;;5046970;28;20050;-78
2023/08/13 02:25:57;;;;;;;;;;;21.60;95.60;;;;;;5045187;28;20018;-80
2023/08/13 02:28:24;;;;;;;;;;;21.60;95.70;;;;;;5045589;28;20092;-78
2023/08/13 02:30:50;;;;;;;;;;;21.60;95.70;;;;;;5045515;28;19992;-78
2023/08/13 02:33:18;;;;;;;;;;;21.60;95.80;;;;;;5046448;28;19976;-78
2023/08/13 02:35:45;;;;;;;;;;;21.60;95.80;;;;;;5042383;28;20469;-78
2023/08/13 02:38:12;;;;;;;;;;;21.60;95.80;;;;;;5040960;28;20910;-80
2023/08/13 02:40:38;;;;;;;;;;;21.50;95.80;;;;;;5045342;28;20083;-79
2023/08/13 02:43:05;;;;;;;;;;;21.50;95.80;;;;;;5046992;28;19987;-79
2023/08/13 02:45:31;;;;;;;;;;;21.50;95.80;;;;;;5042260;28;20007;-79
2023/08/13 02:47:58;;;;;;;;;;;21.50;95.80;;;;;;5045342;28;19975;-79
2023/08/13 02:50:26;;;;;;;;;;;21.50;95.80;;;;;;5046251;28;19980;-79
2023/08/13 02:52:52;;;;;;;;;;;21.50;95.90;;;;;;5046110;28;19983;-79
2023/08/13 02:55:19;;;;;;;;;;;21.50;95.90;;;;;;5042037;28;19991;-78
2023/08/13 02:57:45;;;;;;;;;;;21.50;95.90;;;;;;5043493;28;19987;-78
2023/08/13 03:00:12;;;;;;;;;;;21.50;95.90;;;;;;5043725;28;19999;-79
2023/08/13 03:02:39;;;;;;;;;;;21.50;95.90;;;;;;5046847;28;19987;-78
2023/08/13 03:05:06;;;;;;;;;;;21.50;95.90;;;;;;5045783;28;19995;-77
2023/08/13 03:07:33;;;;;;;;;;;21.40;95.90;;;;;;5043880;28;19975;-77
2023/08/13 03:10:00;;;;;;;;;;;21.40;96.00;;;;;;5043938;28;19980;-77
2023/08/13 03:12:27;;;;;;;;;;;21.40;96.00;;;;;;5043833;28;19986;-78
2023/08/13 03:14:53;;;;;;;;;;;21.40;96.00;;;;;;5044680;28;19993;-79
2023/08/13 03:17:20;;;;;;;;;;;21.40;96.00;;;;;;5045457;28;20740;-78
2023/08/13 03:19:47;;;;;;;;;;;21.40;96.00;;;;;;5044993;28;20468;-80
2023/08/13 03:22:13;;;;;;;;;;;21.40;96.00;;;;;;5044473;28;20587;-79
2023/08/13 03:24:40;;;;;;;;;;;21.40;96.00;;;;;;5039523;28;21030;-79
2023/08/13 03:27:07;;;;;;;;;;;21.40;96.10;;;;;;5042221;28;20594;-78
2023/08/13 03:29:33;;;;;;;;;;;21.30;96.10;;;;;;5040059;28;19995;-78
2023/08/13 03:32:00;;;;;;;;;;;21.30;96.10;;;;;;5043318;28;19996;-78
2023/08/13 03:34:26;;;;;;;;;;;21.30;96.10;;;;;;5043506;28;20004;-79
2023/08/13 03:36:53;;;;;;;;;;;21.30;96.10;;;;;;5045576;28;19980;-78
2023/08/13 03:39:20;;;;;;;;;;;21.40;96.20;;;;;;5045791;28;20043;-76
2023/08/13 03:41:47;;;;;;;;;;;21.30;96.20;;;;;;5049022;28;20112;-78
2023/08/13 03:44:14;;;;;;;;;;;21.30;96.20;;;;;;5040325;28;20021;-78
2023/08/13 03:46:41;;;;;;;;;;;21.30;96.20;;;;;;5044740;28;19995;-77
2023/08/13 03:49:07;;;;;;;;;;;21.30;96.30;;;;;;5048106;28;19984;-79
2023/08/13 03:51:34;;;;;;;;;;;21.30;96.30;;;;;;5051796;28;19976;-79
2023/08/13 03:54:00;;;;;;;;;;;21.30;96.30;;;;;;5048464;28;19976;-79
2023/08/13 03:56:27;;;;;;;;;;;21.30;96.30;;;;;;5042700;28;19977;-79
2023/08/13 03:58:55;;;;;;;;;;;21.30;96.40;;;;;;5044957;28;19976;-79
2023/08/13 04:01:21;;;;;;;;;;;21.30;96.40;;;;;;5043054;28;20396;-78
2023/08/13 04:03:48;;;;;;;;;;;21.20;96.40;;;;;;5042970;28;19994;-79
2023/08/13 04:06:14;;;;;;;;;;;21.30;96.40;;;;;;5045246;28;19991;-80
2023/08/13 04:08:41;;;;;;;;;;;21.30;96.40;;;;;;5043564;28;19984;-79
2023/08/13 04:11:07;;;;;;;;;;;21.20;96.40;;;;;;5041429;28;19976;-79
2023/08/13 04:13:34;;;;;;;;;;;21.20;96.40;;;;;;5045878;28;19976;-79
2023/08/13 04:16:02;;;;;;;;;;;21.20;96.40;;;;;;5041856;28;20004;-80
2023/08/13 04:18:28;;;;;;;;;;;21.20;96.50;;;;;;5043922;28;19983;-78
2023/08/13 04:20:55;;;;;;;;;;;21.30;96.50;;;;;;5045050;28;19992;-78
2023/08/13 04:23:22;;;;;;;;;;;21.20;96.50;;;;;;5045024;28;20403;-79
2023/08/13 04:25:48;;;;;;;;;;;21.30;96.50;;;;;;5046295;28;20924;-79
2023/08/13 04:28:15;;;;;;;;;;;21.20;96.50;;;;;;5044913;28;19979;-79
2023/08/13 04:30:41;;;;;;;;;;;21.20;96.50;;;;;;5043368;28;20003;-78
2023/08/13 04:33:09;;;;;;;;;;;21.30;96.50;;;;;;5044603;28;19972;-79
2023/08/13 04:35:36;;;;;;;;;;;21.20;96.50;;;;;;5043198;28;19992;-78
2023/08/13 04:38:02;;;;;;;;;;;21.20;96.50;;;;;;5045313;28;19983;-79
2023/08/13 04:40:29;;;;;;;;;;;21.20;96.50;;;;;;5045238;28;20002;-80
2023/08/13 04:42:55;;;;;;;;;;;21.20;96.50;;;;;;5044116;28;20488;-79
2023/08/13 04:45:22;;;;;;;;;;;21.20;96.50;;;;;;5041923;28;19995;-79
2023/08/13 04:47:48;;;;;;;;;;;21.20;96.50;;;;;;5046148;28;19975;-79
2023/08/13 04:50:16;;;;;;;;;;;21.20;96.50;;;;;;5049294;28;20571;-79
2023/08/13 04:52:43;;;;;;;;;;;21.20;96.60;;;;;;5050149;28;19980;-79
2023/08/13 04:55:10;;;;;;;;;;;21.20;96.60;;;;;;5045190;28;19996;-79
2023/08/13 04:57:36;;;;;;;;;;;21.20;96.60;;;;;;5047306;28;19976;-79
2023/08/13 05:00:04;;;;;;;;;;;21.20;96.60;;;;;;5044663;28;19999;-79
2023/08/13 05:02:30;;;;;;;;;;;21.20;96.60;;;;;;5043180;28;20000;-81
2023/08/13 05:04:57;;;;;;;;;;;21.10;96.60;;;;;;5044724;28;19996;-80
2023/08/13 05:07:25;;;;;;;;;;;21.10;96.60;;;;;;5047304;28;19977;-79
2023/08/13 05:09:51;;;;;;;;;;;21.10;96.60;;;;;;5049674;28;19980;-80
2023/08/13 05:12:18;;;;;;;;;;;21.10;96.60;;;;;;5045762;28;19981;-80
2023/08/13 05:14:44;;;;;;;;;;;21.10;96.60;;;;;;5049352;28;19992;-80
2023/08/13 05:17:18;;;;;;;;;;;21.10;96.60;;;;;;5040996;28;19996;-77
2023/08/13 05:19:45;;;;;;;;;;;21.10;96.60;;;;;;5040827;28;20049;-80
2023/08/13 05:22:11;;;;;;;;;;;21.10;96.60;;;;;;5040527;28;19976;-78
2023/08/13 05:24:39;;;;;;;;;;;21.10;96.50;;;;;;5042465;28;19995;-80
2023/08/13 05:27:06;;;;;;;;;;;21.10;96.50;;;;;;5044778;28;19976;-79
2023/08/13 05:29:32;;;;;;;;;;;21.10;96.50;;;;;;5040058;28;19980;-77
2023/08/13 05:31:59;;;;;;;;;;;21.10;96.60;;;;;;5042605;28;19992;-79
2023/08/13 05:34:25;;;;;;;;;;;21.10;96.60;;;;;;5040554;28;20484;-78
2023/08/13 05:36:52;;;;;;;;;;;21.10;96.50;;;;;;5044722;28;21604;-79
2023/08/13 05:39:19;;;;;;;;;;;21.10;96.50;;;;;;5045500;28;19983;-83
2023/08/13 05:41:46;;;;;;;;;;;21.10;96.50;;;;;;5044242;28;20090;-78
2023/08/13 05:44:13;;;;;;;;;;;21.10;96.60;;;;;;5039890;28;20007;-79
2023/08/13 05:46:40;;;;;;;;;;;21.10;96.50;;;;;;5045643;28;20007;-80
2023/08/13 05:49:06;;;;;;;;;;;21.10;96.50;;;;;;5041690;28;19976;-79
2023/08/13 05:51:33;;;;;;;;;;;21.10;96.50;;;;;;5043529;28;20384;-80
2023/08/13 05:53:59;;;;;;;;;;;21.10;96.50;;;;;;5042965;28;19979;-79
2023/08/13 05:56:26;;;;;;;;;;;21.10;96.50;;;;;;5047628;28;19976;-79
2023/08/13 05:58:54;;;;;;;;;;;21.10;96.50;;;;;;5043732;28;19983;-79
2023/08/13 06:01:20;;;;;;;;;;;21.10;96.50;;;;;;5041482;28;20002;-79
2023/08/13 06:03:47;;;;;;;;;;;21.10;96.50;;;;;;5039662;28;19972;-78
2023/08/13 06:06:15;;;;;;;;;;;21.10;96.50;;;;;;5043451;28;20003;-81
2023/08/13 06:08:42;;;;;;;;;;;21.10;96.50;;;;;;5042617;28;19983;-80
2023/08/13 06:11:08;;;;;;;;;;;21.10;96.50;;;;;;5047687;28;19976;-80
2023/08/13 06:13:38;;;;;;;;;;;21.10;96.50;;;;;;5045307;28;19983;-78
2023/08/13 06:16:06;;;;;;;;;;;21.10;96.50;;;;;;5043787;28;20405;-79
2023/08/13 06:18:33;;;;;;;;;;;21.10;96.50;;;;;;5051475;28;20010;-79
2023/08/13 06:20:59;;;;;;;;;;;21.10;96.50;;;;;;5046215;28;20465;-80
2023/08/13 06:23:26;;;;;;;;;;;21.10;96.50;;;;;;5045898;28;20458;-79
2023/08/13 06:25:52;;;;;;;;;;;21.10;96.50;;;;;;5046404;28;19992;-80
2023/08/13 06:28:19;;;;;;;;;;;21.10;96.50;;;;;;5047220;28;20435;-79
2023/08/13 06:30:46;;;;;;;;;;;21.10;96.50;;;;;;5049233;28;20448;-80
2023/08/13 06:33:14;;;;;;;;;;;21.10;96.50;;;;;;5051201;28;20006;-79
2023/08/13 06:35:44;;;;;;;;;;;21.10;96.50;;;;;;5049652;28;20011;-79
2023/08/13 06:38:10;;;;;;;;;;;21.20;96.50;;;;;;5050983;28;20011;-80
2023/08/13 06:40:37;;;;;;;;;;;21.20;96.50;;;;;;5049507;28;20387;-75
2023/08/13 06:43:03;;;;;;;;;;;21.20;96.50;;;;;;5046309;28;20551;-80
2023/08/13 06:45:30;;;;;;;;;;;21.20;96.60;;;;;;5043595;28;20380;-78
2023/08/13 06:47:57;;;;;;;;;;;21.20;96.60;;;;;;5047459;28;20540;-77
2023/08/13 06:50:25;;;;;;;;;;;21.20;96.50;;;;;;5049695;28;19979;-78
2023/08/13 06:52:52;;;;;;;;;;;21.20;96.50;;;;;;5046245;28;20531;-78
2023/08/13 06:55:18;;;;;;;;;;;21.20;96.50;;;;;;5046287;28;19988;-78
2023/08/13 06:57:46;;;;;;;;;;;21.20;96.50;;;;;;5048573;28;20010;-78
2023/08/13 07:00:14;;;;;;;;;;;21.20;96.50;;;;;;5045027;28;20026;-78
2023/08/13 07:02:41;;;;;;;;;;;21.30;96.50;;;;;;5046772;28;19979;-78
2023/08/13 07:05:09;;;;;;;;;;;21.30;96.50;;;;;;5041348;28;19991;-78
2023/08/13 07:07:37;;;;;;;;;;;21.30;96.50;;;;;;5043444;28;19975;-77
2023/08/13 07:10:04;;;;;;;;;;;21.30;96.40;;;;;;5044378;28;21427;-78
2023/08/13 07:12:30;;;;;;;;;;;21.30;96.40;;;;;;5043878;28;20030;-78
2023/08/13 07:14:57;;;;;;;;;;;21.30;96.50;;;;;;5046172;28;19991;-77
2023/08/13 07:17:24;;;;;;;;;;;21.30;96.40;;;;;;5043463;28;20003;-78
2023/08/13 07:19:50;;;;;;;;;;;21.30;96.40;;;;;;5045246;28;20441;-78
2023/08/13 07:22:18;;;;;;;;;;;21.40;96.40;;;;;;5047708;28;20015;-77
2023/08/13 07:24:46;;;;;;;;;;;21.40;96.40;;;;;;5044213;28;20744;-78
2023/08/13 07:27:12;;;;;;;;;;;21.40;96.30;;;;;;5048710;28;19980;-74
2023/08/13 07:29:39;;;;;;;;;;;21.40;96.30;;;;;;5045186;28;20584;-77
2023/08/13 07:32:06;;;;;;;;;;;21.40;96.30;;;;;;5044943;28;20010;-79
2023/08/13 07:34:32;;;;;;;;;;;21.40;96.30;;;;;;5041644;28;20004;-79
2023/08/13 07:36:59;;;;;;;;;;;21.40;96.20;;;;;;5048962;28;19980;-78
2023/08/13 07:39:25;;;;;;;;;;;21.50;96.20;;;;;;5045119;28;19987;-79
2023/08/13 07:41:53;;;;;;;;;;;21.50;96.20;;;;;;5045128;28;20480;-78
2023/08/13 07:44:20;;;;;;;;;;;21.50;96.20;;;;;;5037669;28;19998;-78
2023/08/13 07:46:50;;;;;;;;;;;21.50;96.10;;;;;;5041027;28;20256;-80
2023/08/13 07:49:17;;;;;;;;;;;21.60;96.10;;;;;;5045201;28;19976;-80
2023/08/13 07:51:43;;;;;;;;;;;21.60;96.00;;;;;;5041127;28;19995;-79
2023/08/13 07:54:10;;;;;;;;;;;21.60;95.90;;;;;;5044127;28;19979;-79
2023/08/13 07:56:37;;;;;;;;;;;21.60;95.80;;;;;;5046396;28;19975;-78
2023/08/13 07:59:05;;;;;;;;;;;21.70;95.80;;;;;;5043816;28;19980;-76
2023/08/13 08:01:33;;;;;;;;;;;21.70;95.80;;;;;;5042283;28;20043;-79
2023/08/13 08:03:59;;;;;;;;;;;21.70;95.70;;;;;;5043108;28;20817;-79
2023/08/13 08:06:26;;;;;;;;;;;21.70;95.70;;;;;;5042429;28;20220;-80
2023/08/13 08:08:52;;;;;;;;;;;21.80;95.60;;;;;;5042302;28;20647;-79
2023/08/13 08:11:19;;;;;;;;;;;21.80;95.50;;;;;;5045568;28;20010;-78
2023/08/13 08:13:46;;;;;;;;;;;21.80;95.50;;;;;;5044075;28;19995;-79
2023/08/13 08:16:13;;;;;;;;;;;21.80;95.50;;;;;;5042447;28;20408;-80
2023/08/13 08:18:40;;;;;;;;;;;21.80;95.40;;;;;;5038451;28;19983;-79
2023/08/13 08:21:06;;;;;;;;;;;21.90;95.30;;;;;;5044122;28;19988;-79
2023/08/13 08:23:33;;;;;;;;;;;21.90;95.30;;;;;;5041933;28;19978;-79
2023/08/13 08:26:00;;;;;;;;;;;21.90;95.20;;;;;;5043115;28;19996;-80
2023/08/13 08:28:27;;;;;;;;;;;21.90;95.10;;;;;;5040928;28;19980;-78
2023/08/13 08:30:53;;;;;;;;;;;22.00;95.10;;;;;;5042025;28;20041;-79
2023/08/13 08:33:23;;;;;;;;;;;22.00;95.00;;;;;;5043634;28;20090;-80
2023/08/13 08:35:50;;;;;;;;;;;22.00;94.90;;;;;;5059513;28;20086;-79
2023/08/13 08:38:16;;;;;;;;;;;22.00;94.90;;;;;;5045806;28;19976;-79
2023/08/13 08:40:43;;;;;;;;;;;22.10;94.80;;;;;;5040584;28;20002;-79
2023/08/13 08:43:10;;;;;;;;;;;22.10;94.80;;;;;;5042157;28;19979;-79
2023/08/13 08:45:36;;;;;;;;;;;22.10;94.80;;;;;;5039960;28;20465;-78
2023/08/13 08:48:04;;;;;;;;;;;22.10;94.70;;;;;;5045429;28;19986;-80
2023/08/13 08:50:33;;;;;;;;;;;22.20;94.60;;;;;;5045953;28;20287;-79
2023/08/13 08:52:59;;;;;;;;;;;22.20;94.50;;;;;;5049088;28;19987;-80
2023/08/13 08:55:26;;;;;;;;;;;22.30;94.40;;;;;;5044161;28;19999;-79
2023/08/13 08:57:54;;;;;;;;;;;22.30;94.30;;;;;;5041417;28;19980;-78
2023/08/13 09:00:20;;;;;;;;;;;22.30;94.30;;;;;;5047647;28;19983;-79
2023/08/13 09:02:47;;;;;;;;;;;22.30;94.20;;;;;;5047043;28;19995;-78
2023/08/13 09:05:13;;;;;;;;;;;22.30;94.00;;;;;;5046755;28;20008;-79
2023/08/13 09:07:43;;;;;;;;;;;22.40;93.90;;;;;;5048745;28;19991;-79
2023/08/13 09:10:10;;;;;;;;;;;22.40;93.90;;;;;;5046145;28;20017;-78
2023/08/13 09:12:37;;;;;;;;;;;22.50;93.80;;;;;;5040315;28;19983;-80
2023/08/13 09:15:05;;;;;;;;;;;22.50;93.70;;;;;;5043929;28;20464;-80
2023/08/13 09:17:31;;;;;;;;;;;22.50;93.60;;;;;;5037531;28;19999;-78
2023/08/13 09:19:58;;;;;;;;;;;22.60;93.50;;;;;;5041201;28;20310;-78
2023/08/13 09:22:24;;;;;;;;;;;22.70;93.40;;;;;;5039137;28;20322;-78
2023/08/13 09:24:53;;;;;;;;;;;22.70;93.30;;;;;;5040761;28;20001;-79
2023/08/13 09:27:20;;;;;;;;;;;22.70;93.20;;;;;;5038624;28;20411;-78
2023/08/13 09:29:52;;;;;;;;;;;22.70;93.00;;;;;;5044265;28;20017;-78
2023/08/13 09:32:19;;;;;;;;;;;22.80;93.00;;;;;;5042642;28;20496;-79
2023/08/13 09:34:45;;;;;;;;;;;22.80;93.00;;;;;;5042447;28;19996;-77
2023/08/13 09:37:12;;;;;;;;;;;22.80;92.90;;;;;;5042287;28;19972;-78
2023/08/13 09:39:40;;;;;;;;;;;22.90;92.90;;;;;;5042585;28;20449;-79
2023/08/13 09:42:08;;;;;;;;;;;22.90;92.80;;;;;;5040817;28;20004;-78
2023/08/13 09:44:35;;;;;;;;;;;23.00;92.70;;;;;;5041870;28;19992;-78
2023/08/13 09:47:02;;;;;;;;;;;23.00;92.70;;;;;;5040880;28;20078;-77
2023/08/13 09:49:30;;;;;;;;;;;23.00;92.50;;;;;;5041749;28;21107;-79
2023/08/13 09:51:59;;;;;;;;;;;23.00;92.50;;;;;;5041700;28;19979;-79
2023/08/13 09:54:29;;;;;;;;;;;23.10;92.40;;;;;;5045219;28;19992;-79
2023/08/13 09:56:58;;;;;;;;;;;23.10;92.50;;;;;;5043459;28;19980;-78
2023/08/13 09:59:26;;;;;;;;;;;23.10;92.40;;;;;;5042430;28;19987;-79
2023/08/13 10:01:53;;;;;;;;;;;23.20;92.30;;;;;;5046092;28;20039;-80
2023/08/13 10:04:20;;;;;;;;;;;23.30;92.30;;;;;;5050702;28;20493;-80
2023/08/13 10:06:49;;;;;;;;;;;23.40;92.20;;;;;;5052079;28;19988;-79
2023/08/13 10:09:16;;;;;;;;;;;23.40;92.10;;;;;;5051542;28;19976;-78
2023/08/13 10:11:43;;;;;;;;;;;23.40;92.00;;;;;;5050277;28;19979;-80
2023/08/13 10:14:09;;;;;;;;;;;23.50;91.80;;;;;;5045612;28;19980;-79
2023/08/13 10:16:38;;;;;;;;;;;23.50;91.60;;;;;;5051359;28;19987;-78
2023/08/13 10:19:07;;;;;;;;;;;23.50;91.40;;;;;;5051470;28;19982;-79
2023/08/13 10:21:34;;;;;;;;;;;23.60;91.40;;;;;;5049882;28;19999;-78
2023/08/13 10:24:01;;;;;;;;;;;23.60;91.30;;;;;;5048457;28;20019;-80
2023/08/13 10:26:28;;;;;;;;;;;23.70;91.30;;;;;;5051180;28;20081;-79
2023/08/13 10:28:54;;;;;;;;;;;23.80;91.30;;;;;;5055016;28;20079;-78
2023/08/13 10:31:24;;;;;;;;;;;23.80;91.20;;;;;;5047149;28;19998;-80
2023/08/13 10:34:01;;;;;;;;;;;23.80;91.40;;;;;;5054134;28;19976;-79
2023/08/13 10:36:42;;;;;;;;;;;23.80;91.00;;;;;;5056736;28;19980;-79
2023/08/13 10:39:23;;;;;;;;;;;23.90;91.00;;;;;;5055640;28;19979;-80
2023/08/13 10:41:50;;;;;;;;;;;23.90;90.90;;;;;;5052090;28;19988;-77
2023/08/13 10:44:26;;;;;;;;;;;23.90;90.80;;;;;;5048996;28;19980;-79
2023/08/13 10:46:52;;;;;;;;;;;24.00;90.80;;;;;;5049918;28;19992;-82
2023/08/13 10:49:20;;;;;;;;;;;24.00;90.60;;;;;;5048954;28;19975;-79
2023/08/13 10:51:48;;;;;;;;;;;24.00;90.60;;;;;;5049352;28;19984;-80
2023/08/13 10:54:15;;;;;;;;;;;24.00;90.60;;;;;;5048317;28;19976;-81
2023/08/13 10:56:42;;;;;;;;;;;24.10;90.50;;;;;;5056229;28;19979;-78
2023/08/13 10:59:09;;;;;;;;;;;24.10;90.50;;;;;;5052003;28;20038;-81
2023/08/13 11:01:55;;;;;;;;;;;24.10;90.50;;;;;;5049785;28;20003;-80
2023/08/13 11:04:23;;;;;;;;;;;24.20;90.60;;;;;;5046318;28;19976;-81
2023/08/13 11:06:50;;;;;;;;;;;24.20;90.50;;;;;;5053788;28;19983;-80
2023/08/13 11:09:17;;;;;;;;;;;24.20;90.40;;;;;;5053686;28;19982;-79
2023/08/13 11:11:44;;;;;;;;;;;24.20;90.40;;;;;;5051567;28;19976;-79
2023/08/13 11:14:11;;;;;;;;;;;24.30;90.40;;;;;;5049093;28;19975;-81
2023/08/13 11:16:37;;;;;;;;;;;24.30;90.40;;;;;;5047331;28;19991;-80
2023/08/13 11:19:04;;;;;;;;;;;24.30;90.40;;;;;;5052880;28;19980;-80
2023/08/13 11:21:33;;;;;;;;;;;24.30;90.30;;;;;;5051153;28;19982;-80
2023/08/13 11:23:59;;;;;;;;;;;24.30;90.20;;;;;;5046305;28;19976;-80
2023/08/13 11:26:26;;;;;;;;;;;24.40;90.20;;;;;;5051108;28;20000;-80
2023/08/13 11:28:55;;;;;;;;;;;24.40;90.30;;;;;;5054476;28;19979;-79
2023/08/13 11:31:22;;;;;;;;;;;24.40;90.30;;;;;;5049097;28;20030;-79
2023/08/13 11:33:49;;;;;;;;;;;24.40;90.20;;;;;;5052665;28;20724;-80
2023/08/13 11:36:16;;;;;;;;;;;24.40;90.20;;;;;;5051390;28;19992;-80
2023/08/13 11:38:44;;;;;;;;;;;24.50;90.30;;;;;;5050731;28;19980;-80
2023/08/13 11:41:11;;;;;;;;;;;24.40;90.30;;;;;;5050911;28;19975;-79
2023/08/13 11:43:38;;;;;;;;;;;24.50;90.30;;;;;;5049758;28;20003;-80
2023/08/13 11:46:05;;;;;;;;;;;24.40;90.20;;;;;;5048434;28;20006;-81
2023/08/13 11:48:33;;;;;;;;;;;24.50;90.20;;;;;;5052413;28;19986;-79
2023/08/13 11:51:11;;;;;;;;;;;24.50;90.20;;;;;;5051128;28;20683;-80
2023/08/13 11:53:40;;;;;;;;;;;24.50;90.00;;;;;;5052235;28;20424;-80
2023/08/13 11:56:08;;;;;;;;;;;24.50;89.90;;;;;;5052276;28;20515;-79
2023/08/13 11:58:35;;;;;;;;;;;24.60;89.80;;;;;;5049516;28;19983;-76
2023/08/13 12:01:01;;;;;;;;;;;24.70;89.50;;;;;;5049038;28;20508;-78
2023/08/13 12:03:34;;;;;;;;;;;24.70;89.30;;;;;;5047979;28;19991;-79
2023/08/13 12:06:01;;;;;;;;;;;24.80;88.90;;;;;;5046175;28;19998;-78
2023/08/13 12:08:28;;;;;;;;;;;24.80;88.60;;;;;;5046262;28;20329;-78
2023/08/13 12:10:55;;;;;;;;;;;24.90;88.60;;;;;;5044425;28;20045;-80
2023/08/13 12:13:22;;;;;;;;;;;24.90;88.20;;;;;;5041107;28;19976;-78
2023/08/13 12:15:49;;;;;;;;;;;25.00;87.60;;;;;;5040915;28;20006;-78
2023/08/13 12:18:15;;;;;;;;;;;25.00;87.30;;;;;;5041507;28;19976;-78
2023/08/13 12:20:42;;;;;;;;;;;25.10;87.20;;;;;;5051346;28;19979;-78
2023/08/13 12:23:09;;;;;;;;;;;25.20;86.60;;;;;;5043078;28;20194;-77
2023/08/13 12:25:35;;;;;;;;;;;25.20;86.60;;;;;;5042642;28;19991;-78
2023/08/13 12:28:02;;;;;;;;;;;25.30;86.70;;;;;;5045524;28;20626;-79
2023/08/13 12:30:30;;;;;;;;;;;25.40;86.70;;;;;;5043478;28;19982;-81
2023/08/13 12:32:57;;;;;;;;;;;25.40;86.40;;;;;;5043314;28;19985;-78
2023/08/13 12:35:23;;;;;;;;;;;25.50;86.40;;;;;;5041388;28;20038;-79
2023/08/13 12:37:50;;;;;;;;;;;25.60;86.40;;;;;;5038105;28;20789;-77
2023/08/13 12:40:17;;;;;;;;;;;25.60;86.00;;;;;;5031950;28;19983;-79
2023/08/13 12:42:44;;;;;;;;;;;25.70;85.40;;;;;;5036355;28;19992;-79
2023/08/13 12:45:11;;;;;;;;;;;25.70;84.70;;;;;;5032149;28;19995;-80
2023/08/13 12:47:39;;;;;;;;;;;25.80;84.10;;;;;;5041582;28;19991;-79
2023/08/13 12:50:06;;;;;;;;;;;25.90;84.50;;;;;;5038698;28;19983;-78
2023/08/13 12:52:33;;;;;;;;;;;26.00;84.40;;;;;;5045157;28;20002;-78
2023/08/13 12:55:00;;;;;;;;;;;26.00;84.30;;;;;;5042211;28;20007;-79
2023/08/13 12:57:26;;;;;;;;;;;26.10;83.80;;;;;;5047604;28;19976;-78
2023/08/13 12:59:53;;;;;;;;;;;26.20;83.60;;;;;;5035825;28;20348;-77
2023/08/13 13:02:20;;;;;;;;;;;26.30;83.10;;;;;;5036994;28;20043;-77
2023/08/13 13:04:49;;;;;;;;;;;26.30;82.40;;;;;;5041404;28;19996;-72
2023/08/13 13:07:15;;;;;;;;;;;26.40;82.30;;;;;;5042651;28;19984;-75
2023/08/13 13:09:42;;;;;;;;;;;26.40;81.80;;;;;;5051693;28;19979;-74
2023/08/13 13:12:08;;;;;;;;;;;26.50;81.60;;;;;;5056356;28;19990;-74
2023/08/13 13:14:35;;;;;;;;;;;26.50;81.10;;;;;;5043472;28;20186;-74
2023/08/13 13:17:02;;;;;;;;;;;26.50;80.80;;;;;;5057015;28;20465;-75
2023/08/13 13:19:28;;;;;;;;;;;26.60;80.30;;;;;;5057026;28;20003;-75
2023/08/13 13:21:56;;;;;;;;;;;26.60;80.80;;;;;;5053220;28;20759;-75
2023/08/13 13:24:23;;;;;;;;;;;26.70;81.10;;;;;;5045378;28;19987;-74
2023/08/13 13:26:49;;;;;;;;;;;26.70;80.90;;;;;;5047216;28;19987;-74
2023/08/13 13:29:16;;;;;;;;;;;26.70;80.00;;;;;;5043519;28;19979;-74
2023/08/13 13:31:44;;;;;;;;;;;26.80;79.90;;;;;;5048103;28;19998;-74
2023/08/13 13:34:11;;;;;;;;;;;26.80;80.10;;;;;;5045224;28;19983;-75
2023/08/13 13:36:37;;;;;;;;;;;26.80;80.30;;;;;;5056134;28;19979;-75
2023/08/13 13:39:05;;;;;;;;;;;26.80;79.80;;;;;;5050393;28;19987;-74
2023/08/13 13:41:32;;;;;;;;;;;26.90;79.50;;;;;;5057305;28;19982;-74
2023/08/13 13:43:58;;;;;;;;;;;26.90;80.00;;;;;;5051906;28;19995;-73
2023/08/13 13:46:25;;;;;;;;;;;27.00;80.10;;;;;;5046507;28;20003;-75
2023/08/13 13:48:51;;;;;;;;;;;27.00;79.60;;;;;;5049117;28;19980;-74
2023/08/13 13:51:18;;;;;;;;;;;27.10;79.70;;;;;;5048857;28;19980;-75
2023/08/13 13:53:44;;;;;;;;;;;27.10;78.80;;;;;;5050872;28;19984;-73
2023/08/13 13:56:12;;;;;;;;;;;27.20;78.50;;;;;;5051004;28;20465;-74
2023/08/13 13:58:39;;;;;;;;;;;27.20;78.70;;;;;;5055265;28;19983;-75
2023/08/13 14:01:05;;;;;;;;;;;27.20;78.40;;;;;;5051882;28;19996;-74
2023/08/13 14:03:32;;;;;;;;;;;27.20;78.10;;;;;;5045845;28;20479;-74
2023/08/13 14:05:58;;;;;;;;;;;27.20;78.30;;;;;;5050087;28;19995;-74
2023/08/13 14:08:25;;;;;;;;;;;27.20;78.50;;;;;;5055190;28;19986;-74
2023/08/13 14:10:52;;;;;;;;;;;27.20;79.10;;;;;;5054730;28;20384;-76
2023/08/13 14:13:20;;;;;;;;;;;27.20;79.20;;;;;;5052905;28;19982;-75
2023/08/13 14:15:46;;;;;;;;;;;27.20;79.00;;;;;;5055157;28;20004;-75